createdAt,value
2018-01-29T00:01:07.651Z,1.83
2018-01-29T00:03:40.254Z,2.10
2018-01-29T00:06:12.954Z,1.90
2018-01-29T00:08:45.581Z,1.77
2018-01-29T00:11:18.296Z,1.70
2018-01-29T00:13:50.899Z,1.77
2018-01-29T00:16:24.328Z,2.30
2018-01-29T00:18:57.764Z,2.10
2018-01-29T00:21:30.708Z,1.97
2018-01-29T00:24:03.348Z,2.30
2018-01-29T00:26:35.915Z,2.20
2018-01-29T00:29:08.476Z,1.77
2018-01-29T00:31:42.114Z,2.30
2018-01-29T00:34:14.830Z,1.90
2018-01-29T00:36:47.912Z,2.00
2018-01-29T00:39:20.587Z,2.20
2018-01-29T00:41:53.112Z,1.70
2018-01-29T00:44:26.292Z,2.00
2018-01-29T00:46:59.138Z,2.43
2018-01-29T00:49:32.798Z,1.67
2018-01-29T00:52:05.568Z,2.10
2018-01-29T00:54:38.061Z,2.30
2018-01-29T00:57:10.767Z,1.70
2018-01-29T00:59:43.326Z,1.77
2018-01-29T01:02:16.618Z,2.17
2018-01-29T01:04:49.526Z,1.70
2018-01-29T01:07:22.091Z,1.80
2018-01-29T01:09:54.574Z,1.43
2018-01-29T01:12:28.056Z,2.00
2018-01-29T01:15:02.165Z,2.10
2018-01-29T01:17:34.889Z,2.07
2018-01-29T01:20:07.379Z,2.07
2018-01-29T01:22:39.860Z,1.63
2018-01-29T01:25:13.241Z,2.00
2018-01-29T01:27:46.062Z,1.83
2018-01-29T01:30:18.717Z,1.60
2018-01-29T01:32:51.206Z,2.10
2018-01-29T01:35:23.840Z,1.93
2018-01-29T01:37:56.422Z,2.10
2018-01-29T01:40:29.088Z,1.60
2018-01-29T01:43:01.516Z,1.93
2018-01-29T01:45:34.891Z,2.00
2018-01-29T01:48:07.788Z,1.40
2018-01-29T01:50:40.428Z,1.70
2018-01-29T01:53:13.212Z,2.00
2018-01-29T01:55:46.107Z,2.00
2018-01-29T01:58:19.556Z,1.50
2018-01-29T02:00:52.188Z,1.77
2018-01-29T02:03:25.436Z,1.30
2018-01-29T02:05:58.001Z,1.77
2018-01-29T02:08:31.311Z,1.30
2018-01-29T02:11:04.005Z,1.23
2018-01-29T02:13:37.380Z,1.27
2018-01-29T02:16:10.403Z,1.70
2018-01-29T02:18:43.788Z,1.40
2018-01-29T02:21:16.326Z,1.57
2018-01-29T02:23:49.513Z,2.10
2018-01-29T02:26:21.969Z,1.30
2018-01-29T02:28:54.359Z,1.50
2018-01-29T02:31:27.004Z,1.93
2018-01-29T02:33:59.652Z,1.80
2018-01-29T02:36:33.113Z,1.73
2018-01-29T02:39:05.878Z,1.70
2018-01-29T02:41:39.057Z,1.70
2018-01-29T02:44:12.418Z,1.57
2018-01-29T02:46:45.827Z,1.60
2018-01-29T02:49:18.762Z,1.80
2018-01-29T02:51:51.472Z,1.93
2018-01-29T02:54:24.018Z,1.70
2018-01-29T02:56:57.695Z,1.70
2018-01-29T02:59:30.281Z,1.60
2018-01-29T03:02:02.823Z,1.37
2018-01-29T03:04:36.076Z,1.57
2018-01-29T03:07:08.678Z,1.63
2018-01-29T03:09:41.180Z,1.10
2018-01-29T03:12:13.780Z,1.67
2018-01-29T03:14:46.414Z,1.67
2018-01-29T03:17:19.080Z,2.00
2018-01-29T03:19:53.126Z,2.10
2018-01-29T03:22:25.678Z,2.00
2018-01-29T03:24:59.306Z,1.50
2018-01-29T03:27:31.810Z,1.50
2018-01-29T03:30:04.339Z,1.47
2018-01-29T03:32:36.830Z,2.00
2018-01-29T03:35:10.292Z,1.50
2018-01-29T03:37:42.841Z,1.93
2018-01-29T03:40:15.444Z,1.40
2018-01-29T03:42:48.030Z,1.20
2018-01-29T03:45:20.538Z,1.43
2018-01-29T03:47:53.866Z,1.47
2018-01-29T03:50:26.516Z,1.47
2018-01-29T03:52:59.184Z,1.80
2018-01-29T03:55:31.756Z,1.60
2018-01-29T03:58:04.479Z,1.30
2018-01-29T04:00:37.824Z,1.50
2018-01-29T04:03:11.268Z,1.40
2018-01-29T04:05:43.984Z,1.20
2018-01-29T04:08:16.646Z,1.60
2018-01-29T04:10:49.969Z,1.63
2018-01-29T04:13:23.147Z,1.43
2018-01-29T04:15:56.528Z,1.30
2018-01-29T04:18:29.396Z,1.70
2018-01-29T04:21:02.720Z,1.87
2018-01-29T04:23:35.299Z,2.03
2018-01-29T04:26:08.018Z,1.50
2018-01-29T04:28:40.416Z,1.70
2018-01-29T04:31:12.990Z,1.93
2018-01-29T04:33:46.447Z,1.20
2018-01-29T04:36:19.170Z,1.80
2018-01-29T04:38:53.145Z,1.50
2018-01-29T04:41:25.998Z,1.80
2018-01-29T04:43:58.642Z,1.60
2018-01-29T04:46:31.954Z,1.40
2018-01-29T04:49:04.897Z,1.70
2018-01-29T04:51:37.402Z,1.67
2018-01-29T04:54:09.994Z,1.93
2018-01-29T04:56:42.576Z,1.90
2018-01-29T04:59:15.929Z,1.50
2018-01-29T05:01:48.720Z,1.60
2018-01-29T05:04:21.454Z,1.40
2018-01-29T05:06:54.390Z,1.77
2018-01-29T05:09:27.701Z,1.73
2018-01-29T05:12:00.898Z,2.47
2018-01-29T05:14:33.896Z,1.53
2018-01-29T05:17:07.292Z,1.80
2018-01-29T05:19:41.021Z,1.87
2018-01-29T05:22:13.537Z,1.70
2018-01-29T05:24:46.119Z,1.70
2018-01-29T05:27:19.480Z,1.60
2018-01-29T05:29:53.686Z,1.63
2018-01-29T05:32:26.600Z,1.20
2018-01-29T05:35:00.058Z,1.80
2018-01-29T05:37:41.550Z,1.53
2018-01-29T05:40:14.300Z,1.43
2018-01-29T05:42:47.600Z,2.30
2018-01-29T05:45:20.576Z,2.00
2018-01-29T05:47:54.359Z,1.53
2018-01-29T05:50:27.785Z,1.50
2018-01-29T05:53:01.048Z,1.87
2018-01-29T05:55:33.869Z,3.10
2018-01-29T05:58:07.344Z,1.87
2018-01-29T06:00:40.761Z,2.10
2018-01-29T06:03:13.264Z,1.67
2018-01-29T06:05:45.937Z,2.10
2018-01-29T06:08:18.532Z,2.80
2018-01-29T06:10:51.108Z,1.47
2018-01-29T06:13:24.398Z,1.50
2018-01-29T06:15:57.401Z,1.70
2018-01-29T06:18:30.624Z,1.10
2018-01-29T06:21:03.336Z,1.40
2018-01-29T06:23:37.404Z,1.50
2018-01-29T06:26:11.113Z,1.30
2018-01-29T06:28:44.464Z,1.30
2018-01-29T06:31:17.406Z,1.27
2018-01-29T06:33:50.633Z,1.43
2018-01-29T06:36:23.862Z,1.63
2018-01-29T06:38:57.254Z,1.40
2018-01-29T06:41:29.882Z,1.67
2018-01-29T06:44:03.248Z,1.70
2018-01-29T06:46:35.904Z,1.80
2018-01-29T06:49:08.702Z,1.33
2018-01-29T06:51:41.275Z,1.40
2018-01-29T06:54:13.708Z,1.30
2018-01-29T06:56:47.158Z,2.03
2018-01-29T06:59:20.135Z,1.57
2018-01-29T07:01:53.517Z,1.50
2018-01-29T07:04:26.626Z,1.50
2018-01-29T07:06:59.215Z,1.30
2018-01-29T07:09:32.484Z,1.80
2018-01-29T07:12:05.257Z,1.63
2018-01-29T07:14:39.345Z,1.60
2018-01-29T07:17:12.292Z,1.57
2018-01-29T07:19:44.829Z,1.53
2018-01-29T07:22:17.297Z,2.20
2018-01-29T07:24:49.849Z,1.93
2018-01-29T07:27:22.562Z,1.83
2018-01-29T07:29:55.079Z,2.00
2018-01-29T07:32:28.722Z,2.50
2018-01-29T07:35:01.248Z,2.57
2018-01-29T07:37:33.646Z,1.80
2018-01-29T07:40:06.281Z,2.27
2018-01-29T07:42:39.616Z,2.10
2018-01-29T07:45:12.331Z,2.53
2018-01-29T07:47:45.737Z,2.20
2018-01-29T07:50:18.883Z,2.60
2018-01-29T07:52:51.916Z,2.67
2018-01-29T07:55:24.431Z,2.50
2018-01-29T07:57:57.143Z,4.27
2018-01-29T08:00:29.562Z,3.40
2018-01-29T08:03:02.406Z,3.13
2018-01-29T08:05:34.926Z,4.40
2018-01-29T08:08:07.784Z,4.77
2018-01-29T08:10:40.324Z,4.90
2018-01-29T08:13:14.706Z,5.47
2018-01-29T08:15:47.894Z,5.73
2018-01-29T08:18:20.663Z,5.30
2018-01-29T08:20:54.039Z,4.80
2018-01-29T08:23:27.586Z,4.97
2018-01-29T08:26:00.227Z,5.27
2018-01-29T08:28:34.693Z,5.53
2018-01-29T08:31:07.903Z,5.20
2018-01-29T08:33:40.636Z,5.43
2018-01-29T08:36:13.127Z,6.37
2018-01-29T08:38:46.465Z,5.87
2018-01-29T08:41:19.857Z,6.27
2018-01-29T08:43:52.378Z,7.30
2018-01-29T08:46:24.844Z,6.70
2018-01-29T08:48:58.341Z,5.57
2018-01-29T08:51:31.046Z,7.60
2018-01-29T08:54:03.953Z,6.90
2018-01-29T08:56:38.056Z,5.77
2018-01-29T08:59:10.948Z,6.20
2018-01-29T09:01:43.472Z,6.40
2018-01-29T09:04:17.725Z,6.60
2018-01-29T09:06:50.404Z,5.73
2018-01-29T09:09:23.171Z,6.23
2018-01-29T09:11:56.434Z,6.40
2018-01-29T09:14:29.772Z,6.77
2018-01-29T09:17:02.566Z,5.93
2018-01-29T09:19:35.193Z,5.27
2018-01-29T09:22:08.992Z,5.33
2018-01-29T09:24:42.488Z,6.20
2018-01-29T09:27:15.127Z,5.87
2018-01-29T09:29:48.469Z,5.10
2018-01-29T09:32:20.958Z,5.10
2018-01-29T09:34:53.543Z,4.67
2018-01-29T09:37:26.875Z,4.50
2018-01-29T09:39:59.430Z,3.90
2018-01-29T09:42:31.953Z,5.10
2018-01-29T09:45:05.263Z,4.47
2018-01-29T09:47:38.001Z,3.97
2018-01-29T09:50:10.831Z,4.00
2018-01-29T09:52:44.215Z,3.83
2018-01-29T09:55:16.950Z,3.43
2018-01-29T09:57:49.676Z,3.50
2018-01-29T10:00:22.374Z,3.80
2018-01-29T10:02:54.892Z,3.80
2018-01-29T10:05:27.535Z,3.07
2018-01-29T10:08:00.231Z,2.60
2018-01-29T10:10:33.520Z,2.73
2018-01-29T10:13:06.190Z,2.60
2018-01-29T10:15:39.602Z,2.43
2018-01-29T10:18:13.254Z,2.13
2018-01-29T10:20:46.446Z,2.33
2018-01-29T10:23:19.652Z,1.80
2018-01-29T10:25:52.540Z,2.10
2018-01-29T10:28:26.712Z,2.23
2018-01-29T10:31:00.324Z,2.10
2018-01-29T10:33:33.388Z,2.50
2018-01-29T10:36:07.237Z,1.97
2018-01-29T10:38:40.017Z,2.70
2018-01-29T10:41:12.515Z,2.00
2018-01-29T10:43:45.010Z,2.43
2018-01-29T10:46:18.661Z,2.20
2018-01-29T10:48:51.520Z,1.97
2018-01-29T10:51:23.984Z,2.40
2018-01-29T10:53:56.630Z,2.40
2018-01-29T10:56:29.325Z,2.30
2018-01-29T10:59:01.788Z,2.53
2018-01-29T11:01:40.604Z,2.40
2018-01-29T11:04:13.237Z,1.80
2018-01-29T11:06:46.311Z,1.97
2018-01-29T11:09:19.760Z,1.83
2018-01-29T11:11:53.922Z,2.20
2018-01-29T11:14:26.656Z,1.77
2018-01-29T11:17:00.074Z,2.10
2018-01-29T11:19:32.534Z,1.90
2018-01-29T11:22:06.116Z,2.30
2018-01-29T11:24:38.849Z,1.80
2018-01-29T11:27:11.392Z,1.63
2018-01-29T11:29:44.228Z,1.87
2018-01-29T11:32:16.759Z,2.40
2018-01-29T11:34:49.232Z,1.70
2018-01-29T11:37:21.889Z,2.53
2018-01-29T11:39:54.461Z,2.00
2018-01-29T11:42:27.164Z,1.77
2018-01-29T11:44:59.609Z,1.67
2018-01-29T11:47:32.990Z,1.60
2018-01-29T11:50:05.459Z,1.80
2018-01-29T11:52:37.988Z,2.30
2018-01-29T11:55:11.364Z,1.77
2018-01-29T11:57:44.665Z,1.90
2018-01-29T12:00:17.591Z,1.50
2018-01-29T12:02:50.100Z,1.70
2018-01-29T12:05:22.584Z,1.63
2018-01-29T12:07:55.178Z,1.60
2018-01-29T12:10:27.809Z,1.20
2018-01-29T12:13:00.431Z,1.37
2018-01-29T12:15:33.747Z,1.43
2018-01-29T12:18:06.203Z,1.90
2018-01-29T12:20:39.574Z,1.63
2018-01-29T12:23:12.801Z,1.40
2018-01-29T12:25:46.060Z,1.50
2018-01-29T12:28:18.761Z,1.50
2018-01-29T12:30:52.097Z,1.33
2018-01-29T12:33:25.427Z,1.40
2018-01-29T12:35:59.249Z,1.30
2018-01-29T12:38:32.229Z,1.40
2018-01-29T12:41:04.807Z,1.33
2018-01-29T12:43:37.407Z,1.47
2018-01-29T12:46:09.803Z,1.30
2018-01-29T12:48:42.369Z,1.20
2018-01-29T12:51:15.016Z,1.40
2018-01-29T12:53:47.786Z,1.90
2018-01-29T12:56:21.477Z,2.00
2018-01-29T12:58:54.005Z,2.20
2018-01-29T13:01:26.738Z,1.77
2018-01-29T13:04:00.211Z,1.70
2018-01-29T13:06:33.428Z,2.20
2018-01-29T13:09:07.026Z,1.90
2018-01-29T13:11:39.755Z,1.60
2018-01-29T13:14:12.255Z,1.60
2018-01-29T13:16:45.542Z,1.40
2018-01-29T13:19:18.419Z,0.97
2018-01-29T13:21:50.862Z,1.60
2018-01-29T13:24:23.617Z,0.97
2018-01-29T13:26:56.983Z,0.87
2018-01-29T13:29:29.599Z,0.90
2018-01-29T13:32:02.004Z,1.00
2018-01-29T13:34:34.744Z,1.10
2018-01-29T13:37:07.288Z,1.17
2018-01-29T13:39:40.672Z,1.27
2018-01-29T13:42:13.724Z,1.20
2018-01-29T13:44:46.409Z,1.40
2018-01-29T13:47:19.139Z,1.17
2018-01-29T13:49:52.010Z,0.93
2018-01-29T13:52:25.392Z,0.90
2018-01-29T13:54:58.282Z,1.17
2018-01-29T13:57:31.458Z,1.00
2018-01-29T14:00:04.341Z,1.10
2018-01-29T14:02:37.174Z,1.40
2018-01-29T14:05:10.346Z,1.13
2018-01-29T14:07:43.302Z,1.50
2018-01-29T14:10:17.052Z,1.43
2018-01-29T14:12:50.940Z,1.30
2018-01-29T14:15:23.595Z,1.30
2018-01-29T14:17:57.063Z,1.20
2018-01-29T14:20:30.617Z,1.60
2018-01-29T14:23:03.052Z,1.27
2018-01-29T14:25:35.458Z,1.50
2018-01-29T14:28:08.195Z,1.20
2018-01-29T14:30:41.005Z,1.10
2018-01-29T14:33:15.091Z,1.20
2018-01-29T14:35:47.807Z,1.13
2018-01-29T14:38:20.288Z,1.57
2018-01-29T14:40:52.864Z,1.40
2018-01-29T14:43:26.152Z,1.10
2018-01-29T14:45:59.394Z,1.40
2018-01-29T14:48:32.892Z,1.13
2018-01-29T14:51:05.770Z,1.27
2018-01-29T14:53:38.458Z,1.20
2018-01-29T14:56:10.987Z,1.50
2018-01-29T14:58:43.569Z,1.40
2018-01-29T15:01:17.216Z,1.33
2018-01-29T15:03:49.905Z,1.20
2018-01-29T15:06:23.186Z,1.60
2018-01-29T15:08:55.970Z,1.37
2018-01-29T15:11:28.844Z,1.40
2018-01-29T15:14:02.150Z,1.33
2018-01-29T15:16:35.791Z,1.50
2018-01-29T15:19:08.537Z,1.87
2018-01-29T15:21:42.560Z,2.23
2018-01-29T15:24:15.449Z,3.30
2018-01-29T15:26:47.948Z,2.37
2018-01-29T15:29:21.278Z,1.90
2018-01-29T15:31:53.728Z,2.03
2018-01-29T15:34:26.380Z,3.30
2018-01-29T15:36:59.732Z,1.60
2018-01-29T15:39:33.329Z,1.47
2018-01-29T15:42:06.009Z,1.87
2018-01-29T15:44:38.478Z,2.17
2018-01-29T15:47:11.263Z,1.90
2018-01-29T15:49:44.630Z,1.70
2018-01-29T15:52:17.377Z,1.90
2018-01-29T15:54:50.015Z,2.67
2018-01-29T15:57:22.665Z,2.00
2018-01-29T15:59:56.093Z,1.40
2018-01-29T16:02:28.713Z,2.00
2018-01-29T16:05:01.411Z,1.50
2018-01-29T16:07:33.954Z,2.10
2018-01-29T16:10:06.395Z,2.17
2018-01-29T16:12:39.071Z,1.97
2018-01-29T16:15:22.773Z,1.80
2018-01-29T16:17:55.297Z,1.50
2018-01-29T16:20:28.630Z,1.67
2018-01-29T16:23:01.564Z,2.30
2018-01-29T16:25:34.820Z,1.90
2018-01-29T16:28:07.532Z,1.70
2018-01-29T16:30:40.158Z,1.80
2018-01-29T16:33:12.600Z,2.00
2018-01-29T16:35:45.947Z,2.30
2018-01-29T16:38:26.434Z,2.30
2018-01-29T16:40:59.453Z,1.73
2018-01-29T16:43:32.669Z,2.30
2018-01-29T16:46:05.991Z,2.43
2018-01-29T16:48:39.523Z,2.37
2018-01-29T16:51:13.243Z,2.57
2018-01-29T16:53:46.621Z,2.07
2018-01-29T16:56:19.988Z,2.27
2018-01-29T16:58:52.936Z,1.83
2018-01-29T17:01:27.151Z,1.70
2018-01-29T17:04:00.429Z,2.20
2018-01-29T17:06:32.951Z,2.20
2018-01-29T17:09:05.869Z,2.43
2018-01-29T17:11:39.269Z,1.73
2018-01-29T17:14:12.704Z,2.27
2018-01-29T17:16:45.345Z,2.47
2018-01-29T17:19:19.175Z,3.10
2018-01-29T17:21:51.949Z,2.97
2018-01-29T17:24:25.019Z,3.23
2018-01-29T17:26:58.231Z,3.50
2018-01-29T17:29:31.548Z,2.53
2018-01-29T17:32:05.829Z,2.87
2018-01-29T17:34:40.090Z,2.63
2018-01-29T17:37:13.623Z,2.37
2018-01-29T17:39:46.872Z,2.70
2018-01-29T17:42:20.264Z,2.60
2018-01-29T17:44:53.024Z,2.60
2018-01-29T17:47:26.218Z,3.30
2018-01-29T17:49:59.092Z,2.27
2018-01-29T17:52:31.683Z,2.90
2018-01-29T17:55:04.201Z,2.87
2018-01-29T17:57:37.523Z,3.03
2018-01-29T18:00:10.322Z,3.37
2018-01-29T18:02:43.811Z,2.67
2018-01-29T18:05:16.606Z,4.77
2018-01-29T18:07:50.162Z,4.17
2018-01-29T18:10:24.346Z,3.60
2018-01-29T18:12:57.016Z,3.70
2018-01-29T18:15:30.105Z,3.60
2018-01-29T18:18:03.008Z,5.03
2018-01-29T18:20:36.011Z,6.30
2018-01-29T18:23:13.432Z,5.97
2018-01-29T18:25:46.956Z,4.60
2018-01-29T18:28:20.219Z,3.57
2018-01-29T18:30:53.350Z,3.40
2018-01-29T18:33:26.623Z,4.03
2018-01-29T18:35:59.509Z,3.13
2018-01-29T18:38:33.206Z,2.83
2018-01-29T18:41:05.914Z,3.50
2018-01-29T18:43:39.342Z,3.90
2018-01-29T18:46:12.113Z,3.50
2018-01-29T18:48:45.617Z,4.00
2018-01-29T18:51:19.149Z,5.20
2018-01-29T18:53:52.323Z,5.20
2018-01-29T18:56:26.192Z,5.60
2018-01-29T18:58:59.340Z,6.67
2018-01-29T19:01:33.388Z,6.50
2018-01-29T19:04:07.296Z,6.50
2018-01-29T19:06:41.108Z,6.90
2018-01-29T19:09:13.854Z,6.37
2018-01-29T19:11:49.710Z,7.70
2018-01-29T19:14:24.725Z,8.07
2018-01-29T19:16:59.259Z,7.40
2018-01-29T19:19:33.091Z,7.23
2018-01-29T19:22:06.120Z,7.97
2018-01-29T19:24:41.638Z,8.43
2018-01-29T19:27:16.821Z,8.60
2018-01-29T19:29:52.113Z,8.07
2018-01-29T19:32:27.858Z,8.17
2018-01-29T19:35:04.193Z,8.23
2018-01-29T19:37:40.075Z,8.77
2018-01-29T19:40:15.325Z,8.10
2018-01-29T19:42:52.091Z,7.03
2018-01-29T19:45:27.840Z,8.03
2018-01-29T19:48:04.120Z,9.23
2018-01-29T19:50:39.495Z,8.60
2018-01-29T19:53:16.300Z,9.10
2018-01-29T19:55:52.278Z,8.83
2018-01-29T19:58:27.455Z,7.73
2018-01-29T20:01:02.988Z,8.07
2018-01-29T20:03:38.488Z,7.17
2018-01-29T20:06:14.977Z,7.07
2018-01-29T20:08:51.056Z,6.80
2018-01-29T20:11:26.680Z,5.83
2018-01-29T20:14:02.371Z,6.93
2018-01-29T20:16:37.625Z,6.10
2018-01-29T20:19:13.318Z,6.70
2018-01-29T20:21:48.799Z,5.57
2018-01-29T20:24:24.508Z,6.63
2018-01-29T20:27:00.085Z,6.00
2018-01-29T20:29:35.769Z,6.00
2018-01-29T20:32:11.111Z,6.17
2018-01-29T20:34:46.815Z,7.23
2018-01-29T20:37:21.844Z,6.37
2018-01-29T20:39:56.998Z,7.40
2018-01-29T20:42:32.421Z,6.63
2018-01-29T20:45:08.142Z,6.10
2018-01-29T20:47:47.514Z,7.00
2018-01-29T20:50:29.623Z,6.37
2018-01-29T20:53:05.228Z,6.03
2018-01-29T20:55:47.307Z,6.20
2018-01-29T20:58:22.964Z,6.00
2018-01-29T21:00:58.403Z,5.10
2018-01-29T21:03:33.562Z,4.50
2018-01-29T21:06:09.331Z,5.20
2018-01-29T21:08:44.731Z,5.30
2018-01-29T21:11:20.819Z,4.90
2018-01-29T21:13:56.318Z,4.80
2018-01-29T21:16:31.553Z,4.10
2018-01-29T21:19:05.049Z,4.87
2018-01-29T21:21:39.366Z,3.90
2018-01-29T21:24:15.366Z,3.57
2018-01-29T21:26:49.326Z,3.67
2018-01-29T21:29:23.033Z,3.30
2018-01-29T21:31:57.452Z,3.40
2018-01-29T21:34:30.125Z,2.43
2018-01-29T21:37:03.630Z,2.27
2018-01-29T21:39:37.038Z,2.17
2018-01-29T21:42:10.464Z,2.90
2018-01-29T21:44:42.997Z,2.50
2018-01-29T21:47:16.508Z,2.20
2018-01-29T21:49:49.822Z,2.30
2018-01-29T21:52:22.572Z,2.53
2018-01-29T21:54:55.930Z,2.20
2018-01-29T21:57:28.577Z,2.40
2018-01-29T22:00:01.938Z,2.60
2018-01-29T22:02:35.272Z,2.00
2018-01-29T22:05:08.461Z,2.20
2018-01-29T22:07:42.928Z,2.23
2018-01-29T22:10:15.487Z,2.00
2018-01-29T22:12:54.050Z,2.10
2018-01-29T22:15:27.388Z,2.07
2018-01-29T22:18:00.220Z,1.60
2018-01-29T22:20:32.820Z,1.83
2018-01-29T22:23:05.600Z,1.97
2018-01-29T22:25:38.176Z,1.50
2018-01-29T22:28:10.759Z,1.90
2018-01-29T22:30:43.263Z,1.93
2018-01-29T22:33:16.528Z,1.97
2018-01-29T22:35:50.128Z,2.50
2018-01-29T22:38:22.996Z,1.80
2018-01-29T22:40:56.253Z,2.30
2018-01-29T22:43:29.464Z,2.20
2018-01-29T22:46:02.122Z,1.87
2018-01-29T22:48:34.682Z,2.23
2018-01-29T22:51:07.988Z,2.30
2018-01-29T22:53:41.443Z,2.53
2018-01-29T22:56:13.868Z,2.03
2018-01-29T22:58:47.341Z,2.10
2018-01-29T23:01:19.862Z,2.10
2018-01-29T23:03:53.051Z,1.93
2018-01-29T23:06:26.326Z,1.77
2018-01-29T23:08:58.928Z,1.90
2018-01-29T23:11:31.522Z,1.90
2018-01-29T23:14:04.656Z,1.87
2018-01-29T23:16:38.863Z,1.73
2018-01-29T23:19:12.799Z,1.63
2018-01-29T23:21:45.485Z,1.70
2018-01-29T23:24:18.609Z,1.47
2018-01-29T23:26:51.925Z,1.37
2018-01-29T23:29:24.625Z,1.40
2018-01-29T23:31:58.026Z,1.33
2018-01-29T23:34:30.822Z,1.13
2018-01-29T23:37:03.270Z,1.33
2018-01-29T23:39:36.654Z,1.20
2018-01-29T23:42:09.000Z,1.00
2018-01-29T23:44:42.372Z,1.20
2018-01-29T23:47:14.844Z,1.40
2018-01-29T23:49:48.306Z,1.20
2018-01-29T23:52:21.269Z,1.37
2018-01-29T23:54:53.976Z,1.40
2018-01-29T23:57:27.097Z,1.30
2018-01-29T23:59:59.936Z,1.20
